createdAt,value
2019-05-20T00:01:56.872Z,99151.66
2019-05-20T00:04:30.034Z,99144.59
2019-05-20T00:07:03.971Z,99149.33
2019-05-20T00:09:37.993Z,99145.14
2019-05-20T00:12:11.225Z,99148.03
2019-05-20T00:14:45.446Z,99143.48
2019-05-20T00:17:19.432Z,99144.70
2019-05-20T00:19:53.503Z,99148.10
2019-05-20T00:22:27.021Z,99153.20
2019-05-20T00:25:01.012Z,99150.31
2019-05-20T00:27:35.125Z,99145.95
2019-05-20T00:30:08.389Z,99154.29
2019-05-20T00:32:42.682Z,99145.00
2019-05-20T00:35:16.761Z,99147.55
2019-05-20T00:37:50.949Z,99117.67
2019-05-20T00:40:24.999Z,99117.67
2019-05-20T00:42:59.036Z,99150.48
2019-05-20T00:45:32.252Z,99154.53
2019-05-20T00:48:06.454Z,99154.73
2019-05-20T00:50:40.515Z,99156.06
2019-05-20T00:53:13.734Z,99151.12
2019-05-20T00:55:48.135Z,99147.89
2019-05-20T00:58:22.244Z,99147.15
2019-05-20T01:00:55.721Z,99146.77
2019-05-20T01:03:29.880Z,99146.87
2019-05-20T01:06:03.876Z,99145.66
2019-05-20T01:08:37.943Z,99140.92
2019-05-20T01:11:11.282Z,99140.69
2019-05-20T01:13:45.387Z,99141.27
2019-05-20T01:16:18.777Z,99151.23
2019-05-20T01:18:52.759Z,99152.92
2019-05-20T01:21:25.767Z,99152.55
2019-05-20T01:23:59.680Z,99147.25
2019-05-20T01:26:34.053Z,99148.58
2019-05-20T01:29:08.125Z,99145.34
2019-05-20T01:31:41.528Z,99142.70
2019-05-20T01:34:17.017Z,99146.30
2019-05-20T01:36:50.354Z,99144.59
2019-05-20T01:39:24.407Z,99147.63
2019-05-20T01:41:57.658Z,99139.87
2019-05-20T01:44:31.481Z,99143.48
2019-05-20T01:47:05.576Z,99136.34
2019-05-20T01:49:39.595Z,99131.81
2019-05-20T01:52:12.967Z,99121.17
2019-05-20T01:54:46.931Z,99122.77
2019-05-20T01:57:20.290Z,99127.32
2019-05-20T01:59:54.455Z,99127.32
2019-05-20T02:02:28.605Z,99127.15
2019-05-20T02:05:01.828Z,99133.03
2019-05-20T02:07:35.909Z,99124.33
2019-05-20T02:10:10.287Z,99126.26
2019-05-20T02:12:44.496Z,99110.94
2019-05-20T02:15:28.709Z,99115.86
2019-05-20T02:18:03.068Z,99116.44
2019-05-20T02:20:37.017Z,99124.01
2019-05-20T02:23:15.578Z,99116.06
2019-05-20T02:25:50.900Z,99120.61
2019-05-20T02:28:24.728Z,99114.94
2019-05-20T02:30:58.565Z,99116.87
2019-05-20T02:33:49.939Z,99113.74
2019-05-20T02:36:08.163Z,99112.14
2019-05-20T02:38:42.092Z,99116.49
2019-05-20T02:41:15.965Z,99117.06
2019-05-20T02:43:49.893Z,99107.42
2019-05-20T02:46:23.781Z,99102.31
2019-05-20T02:48:57.759Z,99104.22
2019-05-20T02:51:31.786Z,99108.19
2019-05-20T02:54:04.937Z,99111.69
2019-05-20T02:56:38.856Z,99113.48
2019-05-20T02:59:12.930Z,99129.59
2019-05-20T03:01:45.946Z,99128.13
2019-05-20T03:04:19.852Z,99133.25
2019-05-20T03:06:53.868Z,99131.87
2019-05-20T03:09:27.966Z,99131.22
2019-05-20T03:12:01.295Z,99124.78
2019-05-20T03:14:35.517Z,99127.38
2019-05-20T03:17:09.613Z,99127.19
2019-05-20T03:19:42.951Z,99126.38
2019-05-20T03:22:17.012Z,99127.41
2019-05-20T03:24:50.069Z,99126.36
2019-05-20T03:27:24.154Z,99126.54
2019-05-20T03:29:57.608Z,99119.34
2019-05-20T03:32:31.645Z,99118.91
2019-05-20T03:35:06.708Z,99107.64
2019-05-20T03:37:40.805Z,99116.61
2019-05-20T03:40:14.133Z,99118.55
2019-05-20T03:42:48.287Z,99115.13
2019-05-20T03:45:21.516Z,99121.92
2019-05-20T03:47:55.502Z,99115.33
2019-05-20T03:50:28.807Z,99119.38
2019-05-20T03:53:02.800Z,99125.09
2019-05-20T03:55:36.084Z,99124.78
2019-05-20T03:58:13.270Z,99113.62
2019-05-20T04:00:48.220Z,99116.78
2019-05-20T04:03:22.377Z,99115.20
2019-05-20T04:05:56.345Z,99113.59
2019-05-20T04:08:30.513Z,99115.69
2019-05-20T04:11:04.873Z,99115.34
2019-05-20T04:13:38.949Z,99108.28
2019-05-20T04:16:12.088Z,99111.59
2019-05-20T04:18:46.162Z,99113.45
2019-05-20T04:21:19.413Z,99115.38
2019-05-20T04:23:53.296Z,99111.84
2019-05-20T04:26:27.203Z,99106.92
2019-05-20T04:29:01.226Z,99100.34
2019-05-20T04:31:34.274Z,99088.70
2019-05-20T04:34:08.201Z,99096.97
2019-05-20T04:36:42.000Z,99098.45
2019-05-20T04:39:16.014Z,99090.61
2019-05-20T04:41:49.041Z,99094.37
2019-05-20T04:44:22.891Z,99092.93
2019-05-20T04:46:58.012Z,99094.55
2019-05-20T04:49:32.151Z,99088.51
2019-05-20T04:52:06.130Z,99093.84
2019-05-20T04:54:40.069Z,99099.80
2019-05-20T04:57:13.923Z,99094.71
2019-05-20T04:59:47.926Z,99095.45
2019-05-20T05:02:20.968Z,99103.92
2019-05-20T05:04:54.907Z,99092.88
2019-05-20T05:07:28.713Z,99096.46
2019-05-20T05:10:02.683Z,99095.94
2019-05-20T05:12:35.897Z,99099.37
2019-05-20T05:15:10.500Z,99098.78
2019-05-20T05:17:44.538Z,99098.36
2019-05-20T05:20:18.724Z,99097.80
2019-05-20T05:22:52.918Z,99095.48
2019-05-20T05:25:27.129Z,99093.10
2019-05-20T05:28:01.063Z,99090.55
2019-05-20T05:30:34.784Z,99098.30
2019-05-20T05:33:08.955Z,99103.95
2019-05-20T05:35:52.978Z,99103.23
2019-05-20T05:38:18.623Z,99099.20
2019-05-20T05:40:51.746Z,99103.53
2019-05-20T05:43:25.583Z,99100.38
2019-05-20T05:45:59.516Z,99093.63
2019-05-20T05:48:32.993Z,99092.80
2019-05-20T05:51:06.922Z,99086.11
2019-05-20T05:53:41.012Z,99088.29
2019-05-20T05:56:14.927Z,99084.36
2019-05-20T05:58:48.179Z,99084.22
2019-05-20T06:01:22.547Z,99088.35
2019-05-20T06:03:56.423Z,99082.89
2019-05-20T06:06:29.629Z,99079.64
2019-05-20T06:09:05.194Z,99074.89
2019-05-20T06:11:39.140Z,99074.82
2019-05-20T06:14:12.317Z,99073.61
2019-05-20T06:16:46.257Z,99072.47
2019-05-20T06:19:20.156Z,99074.03
2019-05-20T06:21:53.352Z,99071.85
2019-05-20T06:24:27.326Z,99062.24
2019-05-20T06:27:01.276Z,99060.17
2019-05-20T06:29:35.189Z,99056.01
2019-05-20T06:32:09.105Z,99060.80
2019-05-20T06:34:43.191Z,99060.04
2019-05-20T06:37:25.027Z,99058.73
2019-05-20T06:39:59.055Z,99058.15
2019-05-20T06:42:32.950Z,99049.00
2019-05-20T06:45:08.448Z,99048.33
2019-05-20T06:47:42.280Z,99046.05
2019-05-20T06:50:15.456Z,99046.11
2019-05-20T06:52:49.242Z,99045.42
2019-05-20T06:55:23.113Z,99055.17
2019-05-20T06:57:56.990Z,99050.79
2019-05-20T07:00:36.906Z,99051.62
2019-05-20T07:03:10.827Z,99046.72
2019-05-20T07:05:44.746Z,99056.39
2019-05-20T07:08:18.725Z,99056.28
2019-05-20T07:10:52.739Z,99059.67
2019-05-20T07:13:26.856Z,99049.98
2019-05-20T07:16:00.727Z,99052.00
2019-05-20T07:18:34.720Z,99051.58
2019-05-20T07:21:08.653Z,99049.37
2019-05-20T07:23:42.566Z,99045.92
2019-05-20T07:26:16.710Z,99042.41
2019-05-20T07:28:50.770Z,99039.34
2019-05-20T07:31:24.822Z,99037.83
2019-05-20T07:33:59.127Z,99035.14
2019-05-20T07:36:32.961Z,99034.50
2019-05-20T07:39:07.885Z,99041.37
2019-05-20T07:41:42.077Z,99032.91
2019-05-20T07:44:16.033Z,99026.89
2019-05-20T07:46:50.409Z,99021.69
2019-05-20T07:49:24.876Z,99016.48
2019-05-20T07:51:59.246Z,99014.70
2019-05-20T07:54:33.546Z,99010.71
2019-05-20T07:57:09.975Z,99007.42
2019-05-20T07:59:45.915Z,99006.87
2019-05-20T08:02:20.212Z,99004.39
2019-05-20T08:04:54.173Z,98999.84
2019-05-20T08:07:49.949Z,98995.90
2019-05-20T08:10:04.320Z,99000.27
2019-05-20T08:12:38.370Z,98990.98
2019-05-20T08:15:12.470Z,98993.44
2019-05-20T08:17:46.694Z,98993.97
2019-05-20T08:20:20.839Z,98994.64
2019-05-20T08:22:54.800Z,98992.12
2019-05-20T08:25:28.771Z,98987.02
2019-05-20T08:28:02.635Z,98986.95
2019-05-20T08:30:38.335Z,98980.92
2019-05-20T08:33:12.183Z,98973.52
2019-05-20T08:35:46.146Z,98978.34
2019-05-20T08:38:20.092Z,98975.17
2019-05-20T08:40:53.936Z,98974.45
2019-05-20T08:43:27.942Z,98977.78
2019-05-20T08:46:01.950Z,98979.09
2019-05-20T08:48:35.779Z,98976.61
2019-05-20T08:51:09.785Z,98981.93
2019-05-20T08:53:43.632Z,98980.78
2019-05-20T08:56:17.616Z,98978.30
2019-05-20T08:58:51.555Z,98983.29
2019-05-20T09:01:25.495Z,98981.56
2019-05-20T09:04:00.530Z,98982.33
2019-05-20T09:06:34.415Z,98988.42
2019-05-20T09:09:11.956Z,98978.42
2019-05-20T09:11:47.722Z,98973.92
2019-05-20T09:14:19.982Z,98974.20
2019-05-20T09:16:53.858Z,98983.98
2019-05-20T09:19:27.702Z,98966.44
2019-05-20T09:22:01.556Z,98969.41
2019-05-20T09:24:35.438Z,98966.79
2019-05-20T09:27:09.464Z,98971.14
2019-05-20T09:29:43.469Z,98962.31
2019-05-20T09:32:17.752Z,98964.87
2019-05-20T09:34:51.913Z,98966.14
2019-05-20T09:37:26.177Z,98966.09
2019-05-20T09:40:00.209Z,98971.93
2019-05-20T09:42:34.081Z,98959.52
2019-05-20T09:45:09.032Z,98972.39
2019-05-20T09:47:42.917Z,98966.77
2019-05-20T09:50:16.766Z,98965.23
2019-05-20T09:52:50.761Z,98967.48
2019-05-20T09:55:24.789Z,98966.03
2019-05-20T09:57:58.768Z,98956.61
2019-05-20T10:00:32.804Z,98957.87
2019-05-20T10:03:07.638Z,98955.17
2019-05-20T10:05:41.909Z,98958.39
2019-05-20T10:08:15.860Z,98953.11
2019-05-20T10:10:49.999Z,98953.08
2019-05-20T10:13:23.943Z,98939.94
2019-05-20T10:15:58.151Z,98936.17
2019-05-20T10:18:37.213Z,98928.22
2019-05-20T10:21:07.644Z,98928.91
2019-05-20T10:23:41.607Z,98935.58
2019-05-20T10:26:15.881Z,98931.37
2019-05-20T10:28:50.008Z,98924.97
2019-05-20T10:31:23.873Z,98933.42
2019-05-20T10:33:57.701Z,98927.41
2019-05-20T10:36:31.533Z,98935.83
2019-05-20T10:39:08.411Z,98932.18
2019-05-20T10:41:42.762Z,98936.18
2019-05-20T10:44:16.681Z,98945.69
2019-05-20T10:46:50.458Z,98942.92
2019-05-20T10:49:24.390Z,98951.30
2019-05-20T10:51:58.298Z,98947.77
2019-05-20T10:54:32.154Z,98950.68
2019-05-20T10:57:06.148Z,98941.84
2019-05-20T10:59:39.928Z,98941.84
2019-05-20T11:02:13.227Z,98948.67
2019-05-20T11:04:47.150Z,98939.81
2019-05-20T11:07:21.090Z,98948.71
2019-05-20T11:09:55.016Z,98946.75
2019-05-20T11:12:29.020Z,98949.51
2019-05-20T11:15:03.214Z,98947.12
2019-05-20T11:17:39.017Z,98947.52
2019-05-20T11:20:13.225Z,98945.80
2019-05-20T11:22:47.125Z,98942.22
2019-05-20T11:25:20.204Z,98944.09
2019-05-20T11:27:54.088Z,98941.81
2019-05-20T11:30:27.384Z,98930.83
2019-05-20T11:33:01.472Z,98928.23
2019-05-20T11:35:35.514Z,98922.05
2019-05-20T11:38:09.451Z,98925.86
2019-05-20T11:40:42.730Z,98920.82
2019-05-20T11:43:16.785Z,98930.33
2019-05-20T11:45:51.176Z,98917.28
2019-05-20T11:48:25.335Z,98924.27
2019-05-20T11:50:58.380Z,98915.72
2019-05-20T11:53:32.440Z,98919.77
2019-05-20T11:56:06.300Z,98928.64
2019-05-20T11:58:39.403Z,98916.62
2019-05-20T12:01:13.211Z,98909.11
2019-05-20T12:03:46.540Z,98912.34
2019-05-20T12:06:20.354Z,98908.94
2019-05-20T12:08:54.489Z,98906.03
2019-05-20T12:11:28.618Z,98898.41
2019-05-20T12:14:02.656Z,98893.56
2019-05-20T12:16:36.568Z,98886.22
2019-05-20T12:19:09.723Z,98874.62
2019-05-20T12:21:43.861Z,98878.38
2019-05-20T12:24:18.077Z,98872.94
2019-05-20T12:26:52.022Z,98867.94
2019-05-20T12:29:25.292Z,98863.30
2019-05-20T12:32:03.322Z,98859.42
2019-05-20T12:34:35.353Z,98858.41
2019-05-20T12:37:09.586Z,98855.41
2019-05-20T12:39:43.670Z,98854.95
2019-05-20T12:42:17.890Z,98846.20
2019-05-20T12:44:51.753Z,98834.49
2019-05-20T12:47:24.815Z,98830.78
2019-05-20T12:49:58.904Z,98829.78
2019-05-20T12:52:32.858Z,98818.87
2019-05-20T12:55:09.141Z,98826.33
2019-05-20T12:57:42.633Z,98816.68
2019-05-20T13:00:17.569Z,98811.11
2019-05-20T13:02:51.494Z,98810.36
2019-05-20T13:05:25.427Z,98811.37
2019-05-20T13:07:58.460Z,98805.80
2019-05-20T13:10:35.767Z,98802.27
2019-05-20T13:13:09.692Z,98801.70
2019-05-20T13:15:42.968Z,98795.61
2019-05-20T13:18:16.986Z,98797.32
2019-05-20T13:20:50.828Z,98803.86
2019-05-20T13:23:24.689Z,98788.22
2019-05-20T13:25:58.744Z,98780.37
2019-05-20T13:28:32.705Z,98781.41
2019-05-20T13:31:08.921Z,98774.69
2019-05-20T13:33:42.814Z,98773.98
2019-05-20T13:36:15.879Z,98762.54
2019-05-20T13:38:49.784Z,98767.25
2019-05-20T13:41:22.993Z,98766.58
2019-05-20T13:43:57.029Z,98774.39
2019-05-20T13:46:30.147Z,98767.02
2019-05-20T13:49:04.102Z,98766.00
2019-05-20T13:51:38.739Z,98758.25
2019-05-20T13:54:14.074Z,98750.19
2019-05-20T13:56:48.231Z,98753.27
2019-05-20T13:59:22.603Z,98745.18
2019-05-20T14:05:19.747Z,98749.17
2019-05-20T14:07:54.809Z,98747.47
2019-05-20T14:10:30.443Z,98752.11
2019-05-20T14:13:05.761Z,98743.02
2019-05-20T14:15:41.042Z,98730.55
2019-05-20T14:18:15.015Z,98727.91
2019-05-20T14:20:48.302Z,98736.37
2019-05-20T14:23:23.389Z,98727.66
2019-05-20T14:25:59.068Z,98719.96
2019-05-20T14:28:34.060Z,98714.63
2019-05-20T14:31:08.465Z,98713.66
2019-05-20T14:33:42.737Z,98713.06
2019-05-20T14:36:37.795Z,98719.81
2019-05-20T14:38:52.679Z,98720.86
2019-05-20T14:41:27.018Z,98732.89
2019-05-20T14:44:00.993Z,98745.91
2019-05-20T14:46:34.221Z,98748.31
2019-05-20T14:49:07.992Z,98747.70
2019-05-20T14:51:41.874Z,98752.25
2019-05-20T14:54:16.477Z,98752.45
2019-05-20T14:56:50.254Z,98746.58
2019-05-20T14:59:24.374Z,98743.23
2019-05-20T15:01:58.369Z,98741.41
2019-05-20T15:04:32.367Z,98741.41
2019-05-20T15:07:06.261Z,98742.72
2019-05-20T15:09:39.456Z,98742.09
2019-05-20T15:12:14.126Z,98734.85
2019-05-20T15:14:48.210Z,98735.48
2019-05-20T15:17:21.486Z,98741.70
2019-05-20T15:19:55.572Z,98747.59
2019-05-20T15:22:29.648Z,98744.57
2019-05-20T15:25:03.975Z,98743.77
2019-05-20T15:27:37.782Z,98744.77
2019-05-20T15:30:12.063Z,98744.77
2019-05-20T15:32:45.963Z,98736.37
2019-05-20T15:35:20.354Z,98732.80
2019-05-20T15:37:54.294Z,98733.80
2019-05-20T15:40:29.332Z,98746.41
2019-05-20T15:43:03.481Z,98753.81
2019-05-20T15:45:37.443Z,98760.55
2019-05-20T15:48:10.497Z,98757.22
2019-05-20T15:50:44.939Z,98769.32
2019-05-20T15:53:24.594Z,98784.13
2019-05-20T15:56:02.728Z,98809.84
2019-05-20T15:58:39.718Z,98837.27
2019-05-20T16:01:15.168Z,98841.36
2019-05-20T16:03:51.451Z,98824.53
2019-05-20T16:06:24.873Z,98827.17
2019-05-20T16:08:58.119Z,98831.59
2019-05-20T16:11:32.331Z,98811.50
2019-05-20T16:14:06.364Z,98804.08
2019-05-20T16:16:39.716Z,98785.24
2019-05-20T16:19:13.710Z,98773.64
2019-05-20T16:21:47.861Z,98781.50
2019-05-20T16:24:22.156Z,98803.10
2019-05-20T16:26:56.134Z,98810.65
2019-05-20T16:29:29.182Z,98801.88
2019-05-20T16:32:03.345Z,98795.48
2019-05-20T16:34:37.278Z,98786.22
2019-05-20T16:37:11.444Z,98761.49
2019-05-20T16:39:45.308Z,98746.56
2019-05-20T16:42:19.179Z,98747.70
2019-05-20T16:44:53.078Z,98750.34
2019-05-20T16:47:27.216Z,98740.02
2019-05-20T16:50:01.058Z,98733.66
2019-05-20T16:52:35.166Z,98733.35
2019-05-20T16:55:10.011Z,98746.25
2019-05-20T16:57:44.028Z,98753.45
2019-05-20T17:00:30.604Z,98751.45
2019-05-20T17:02:53.048Z,98757.16
2019-05-20T17:05:27.311Z,98759.31
2019-05-20T17:08:01.886Z,98765.02
2019-05-20T17:10:35.986Z,98774.58
2019-05-20T17:13:09.809Z,98805.85
2019-05-20T17:15:43.636Z,98790.83
2019-05-20T17:18:18.013Z,98769.39
2019-05-20T17:20:51.948Z,98766.23
2019-05-20T17:23:26.031Z,98789.23
2019-05-20T17:26:00.168Z,98805.70
2019-05-20T17:28:34.024Z,98836.52
2019-05-20T17:31:08.025Z,98848.58
2019-05-20T17:33:41.209Z,98842.22
2019-05-20T17:36:15.136Z,98830.76
2019-05-20T17:38:49.577Z,98812.30
2019-05-20T17:41:23.666Z,98810.63
2019-05-20T17:43:56.799Z,98812.85
2019-05-20T17:46:30.775Z,98803.62
2019-05-20T17:49:03.946Z,98787.05
2019-05-20T17:51:38.320Z,98786.41
2019-05-20T17:54:13.798Z,98799.41
2019-05-20T17:56:47.820Z,98817.84
2019-05-20T17:59:22.157Z,98802.77
2019-05-20T18:01:56.074Z,98799.80
2019-05-20T18:04:29.984Z,98791.77
2019-05-20T18:07:03.992Z,98802.83
2019-05-20T18:09:38.728Z,98811.56
2019-05-20T18:12:12.643Z,98816.92
2019-05-20T18:14:48.355Z,98828.08
2019-05-20T18:17:22.419Z,98829.91
2019-05-20T18:19:55.485Z,98825.88
2019-05-20T18:22:29.542Z,98829.91
2019-05-20T18:25:03.969Z,98842.70
2019-05-20T18:27:38.641Z,98844.86
2019-05-20T18:30:13.511Z,98855.03
2019-05-20T18:32:47.576Z,98850.12
2019-05-20T18:35:20.847Z,98857.78
2019-05-20T18:37:59.667Z,98854.20
2019-05-20T18:40:40.172Z,98849.33
2019-05-20T18:43:14.911Z,98852.16
2019-05-20T18:45:48.810Z,98869.55
2019-05-20T18:48:22.832Z,98862.80
2019-05-20T18:50:55.974Z,98859.75
2019-05-20T18:53:29.846Z,98858.21
2019-05-20T18:56:03.981Z,98852.05
2019-05-20T18:58:37.122Z,98846.92
2019-05-20T19:01:11.310Z,98850.56
2019-05-20T19:03:45.405Z,98844.92
2019-05-20T19:06:18.511Z,98845.70
2019-05-20T19:08:52.828Z,98836.66
2019-05-20T19:11:26.912Z,98847.30
2019-05-20T19:14:00.216Z,98870.66
2019-05-20T19:16:34.449Z,98885.38
2019-05-20T19:19:08.578Z,98876.62
2019-05-20T19:21:42.567Z,98869.52
2019-05-20T19:24:16.694Z,98855.80
2019-05-20T19:26:49.710Z,98863.11
2019-05-20T19:29:23.705Z,98869.06
2019-05-20T19:32:01.783Z,98867.13
2019-05-20T19:34:31.778Z,98850.56
2019-05-20T19:37:05.742Z,98851.08
2019-05-20T19:39:39.584Z,98813.06
2019-05-20T19:42:13.580Z,98812.83
2019-05-20T19:44:47.408Z,98814.02
2019-05-20T19:47:21.459Z,98783.03
2019-05-20T19:49:54.711Z,98778.68
2019-05-20T19:52:28.547Z,98789.98
2019-05-20T19:55:02.477Z,98781.84
2019-05-20T19:57:36.398Z,98772.71
2019-05-20T20:00:10.774Z,98774.37
2019-05-20T20:02:44.598Z,98780.95
2019-05-20T20:05:18.730Z,98773.02
2019-05-20T20:07:51.781Z,98776.86
2019-05-20T20:10:25.703Z,98767.83
2019-05-20T20:13:00.320Z,98766.23
2019-05-20T20:15:34.283Z,98758.34
2019-05-20T20:18:08.226Z,98774.03
2019-05-20T20:20:42.300Z,98780.70
2019-05-20T20:23:16.293Z,98787.36
2019-05-20T20:25:50.297Z,98788.98
2019-05-20T20:28:25.818Z,98799.64
2019-05-20T20:30:59.334Z,98806.30
2019-05-20T20:33:33.491Z,98796.03
2019-05-20T20:36:06.739Z,98801.48
2019-05-20T20:38:40.656Z,98805.84
2019-05-20T20:41:14.575Z,98798.11
2019-05-20T20:43:48.429Z,98802.75
2019-05-20T20:46:22.506Z,98806.03
2019-05-20T20:48:56.538Z,98805.91
2019-05-20T20:51:30.487Z,98801.19
2019-05-20T20:54:04.593Z,98796.51
2019-05-20T20:56:37.576Z,98805.97
2019-05-20T20:59:11.686Z,98814.83
2019-05-20T21:01:45.666Z,98806.89
2019-05-20T21:04:19.638Z,98795.88
2019-05-20T21:06:53.474Z,98794.62
2019-05-20T21:09:27.508Z,98779.48
2019-05-20T21:12:00.736Z,98794.82
2019-05-20T21:14:34.724Z,98789.37
2019-05-20T21:17:08.673Z,98787.52
2019-05-20T21:19:42.878Z,98793.20
2019-05-20T21:22:16.907Z,98798.72
2019-05-20T21:24:50.008Z,98787.34
2019-05-20T21:27:23.808Z,98783.58
2019-05-20T21:29:57.899Z,98774.74
2019-05-20T21:32:31.019Z,98780.17
2019-05-20T21:35:05.457Z,98775.53
2019-05-20T21:37:39.561Z,98775.04
2019-05-20T21:40:13.621Z,98783.62
2019-05-20T21:42:46.806Z,98781.70
2019-05-20T21:45:20.657Z,98778.06
2019-05-20T21:47:54.593Z,98783.39
2019-05-20T21:50:28.583Z,98784.11
2019-05-20T21:53:01.986Z,98784.23
2019-05-20T21:55:36.014Z,98780.73
2019-05-20T21:58:09.977Z,98779.88
2019-05-20T22:00:51.318Z,98785.56
2019-05-20T22:03:25.572Z,98784.72
2019-05-20T22:05:59.744Z,98783.39
2019-05-20T22:08:32.823Z,98777.70
2019-05-20T22:11:06.839Z,98778.68
2019-05-20T22:13:40.786Z,98785.56
2019-05-20T22:16:15.059Z,98789.98
2019-05-20T22:18:49.195Z,98783.70
2019-05-20T22:21:30.769Z,98786.38
2019-05-20T22:24:08.925Z,98784.42
2019-05-20T22:26:43.176Z,98775.46
2019-05-20T22:29:17.649Z,98774.97
2019-05-20T22:31:51.589Z,98779.81
2019-05-20T22:34:25.542Z,98775.95
2019-05-20T22:36:59.793Z,98772.70
2019-05-20T22:39:34.036Z,98774.52
2019-05-20T22:42:08.121Z,98766.88
2019-05-20T22:44:41.506Z,98773.41
2019-05-20T22:47:15.351Z,98776.69
2019-05-20T22:49:49.198Z,98779.54
2019-05-20T22:52:23.127Z,98788.69
2019-05-20T22:54:57.046Z,98802.88
2019-05-20T22:57:30.879Z,98795.49
2019-05-20T23:00:06.291Z,98795.85
2019-05-20T23:02:40.118Z,98793.55
2019-05-20T23:05:14.308Z,98789.43
2019-05-20T23:07:48.598Z,98779.01
2019-05-20T23:10:22.879Z,98786.71
2019-05-20T23:12:57.133Z,98794.34
2019-05-20T23:15:31.039Z,98800.31
2019-05-20T23:18:05.176Z,98797.52
2019-05-20T23:20:39.153Z,98800.02
2019-05-20T23:23:13.038Z,98797.59
2019-05-20T23:25:47.123Z,98793.11
2019-05-20T23:28:20.193Z,98793.83
2019-05-20T23:30:54.451Z,98793.22
2019-05-20T23:33:28.306Z,98784.51
2019-05-20T23:36:02.167Z,98783.41
2019-05-20T23:38:36.006Z,98779.90
2019-05-20T23:41:09.809Z,98792.24
2019-05-20T23:43:43.685Z,98787.89
2019-05-20T23:46:17.675Z,98779.90
2019-05-20T23:48:51.641Z,98789.29
2019-05-20T23:51:24.728Z,98782.14
2019-05-20T23:53:58.559Z,98773.31
2019-05-20T23:56:32.438Z,98782.99
2019-05-20T23:59:06.436Z,98776.82
